メインページ
METAR-TAF:

METAR-TAF

空港 :

カラチ, パキスタン

ジンナー国際空港

緯度: 24-54N, 経度: 067-08E, 海抜: 21m

現時点の気象観測

当レポートは36分前の15:55(UTC)に作成
南西の風 12kt
気温 31°C
湿度 66%
気圧 1001 hPa
視程: 7000m
高度2000ftの雲は散在している
高度3000ftの千切れ雲あり

METAR: OPKC 221555Z 22012KT 7000 SCT020 BKN030 31/24 Q1001 TEMPO 23015G25

時間: 21:31 (16:31 UTC)

予報

当レポートは6時間31分前の10:00(UTC)に作成
予報は22日の 12時(UTC)から 23日の 18時(UTC)まで有効
南西の風 10kt、最大20ktの突風を伴う
視程: 6000m
高度2000ftの千切れ雲あり
22日の 2100時(UTC)から
西/南西の風 8kt、最大18ktの突風を伴う
視程: 5000m
高度1800ftの雲は散在している
高度2000ftの千切れ雲あり
霧雨
23日の 0600時(UTC)から
南西の風 12kt、最大22ktの突風を伴う
視程: 6000m
高度2000ftの千切れ雲あり

TAF: OPKC 221000Z 2212/2318 23010G20KT 6000 BKN020 FM222100 24008G18KT 5000 DZ SCT018 BKN020 FM230600 23012G22KT 6000 BKN020

4,000以上の空港の気象観測と天気予報(METAR報とTAF報)

利用可能な観測所は地図上に黄色い丸と赤い丸で示す。

丸の上にカーソルを重ねると観測所名を参照できる。

次にクリックすると気象観測と天気予報を参照できる。

マップの切り替え:黒色「×」印の緑ボタンをクリックして拡大、「-」印の緑ボタンをクリックして縮小、緑色の三角印をクリックして隣りの地図に切り替え


METAR-TAF: